createdAt,value
2022-12-04T00:02:25.198Z,102099.53
2022-12-04T00:04:51.721Z,102095.97
2022-12-04T00:07:18.435Z,102095.13
2022-12-04T00:09:44.935Z,102095.13
2022-12-04T00:12:11.379Z,102087.97
2022-12-04T00:15:00.871Z,102094.38
2022-12-04T00:17:24.255Z,102096.38
2022-12-04T00:19:50.690Z,102097.38
2022-12-04T00:22:17.122Z,102097.50
2022-12-04T00:24:43.614Z,102088.34
2022-12-04T00:27:10.098Z,102101.06
2022-12-04T00:29:37.006Z,102087.66
2022-12-04T00:32:03.560Z,102087.78
2022-12-04T00:34:30.125Z,102085.19
2022-12-04T00:36:56.569Z,102088.91
2022-12-04T00:39:23.044Z,102102.59
2022-12-04T00:41:49.427Z,102092.63
2022-12-04T00:44:15.924Z,102087.91
2022-12-04T00:46:42.913Z,102095.94
2022-12-04T00:49:09.447Z,102100.19
2022-12-04T00:51:35.867Z,102090.34
2022-12-04T00:54:02.410Z,102101.34
2022-12-04T00:56:29.369Z,102101.34
2022-12-04T00:58:56.985Z,102104.16
2022-12-04T01:01:24.450Z,102090.63
2022-12-04T01:03:51.184Z,102082.63
2022-12-04T01:06:19.811Z,102083.63
2022-12-04T01:08:46.389Z,102087.31
2022-12-04T01:11:12.800Z,102083.88
2022-12-04T01:13:39.257Z,102082.19
2022-12-04T01:16:05.826Z,102078.88
2022-12-04T01:18:32.338Z,102087.84
2022-12-04T01:20:58.766Z,102077.53
2022-12-04T01:23:25.235Z,102084.41
2022-12-04T01:25:53.065Z,102085.28
2022-12-04T01:28:19.475Z,102075.31
2022-12-04T01:30:45.970Z,102071.75
2022-12-04T01:33:12.371Z,102070.75
2022-12-04T01:35:38.834Z,102068.88
2022-12-04T01:38:05.314Z,102077.16
2022-12-04T01:40:31.782Z,102071.59
2022-12-04T01:42:59.597Z,102075.16
2022-12-04T01:45:40.845Z,102074.16
2022-12-04T01:48:26.103Z,102069.75
2022-12-04T01:50:55.770Z,102076.03
2022-12-04T01:53:22.308Z,102066.19
2022-12-04T01:55:48.968Z,102056.19
2022-12-04T01:58:17.621Z,102058.75
2022-12-04T02:00:47.403Z,102063.31
2022-12-04T02:03:17.542Z,102063.22
2022-12-04T02:05:43.982Z,102056.66
2022-12-04T02:08:11.124Z,102060.22
2022-12-04T02:11:00.644Z,102063.66
2022-12-04T02:13:37.864Z,102059.09
2022-12-04T02:16:07.439Z,102060.94
2022-12-04T02:18:48.890Z,102062.50
2022-12-04T02:21:30.787Z,102060.81
2022-12-04T02:24:06.462Z,102059.94
2022-12-04T02:26:47.178Z,102062.66
2022-12-04T02:29:25.566Z,102058.09
2022-12-04T02:31:51.957Z,102047.13
2022-12-04T02:34:50.818Z,102046.25
2022-12-04T02:37:19.455Z,102053.25
2022-12-04T02:39:55.288Z,102054.13
2022-12-04T02:42:27.166Z,102053.13
2022-12-04T02:44:56.313Z,102046.72
2022-12-04T02:47:24.028Z,102038.59
2022-12-04T02:49:57.047Z,102041.31
2022-12-04T02:52:27.050Z,102042.00
2022-12-04T02:54:57.578Z,102033.88
2022-12-04T02:57:27.069Z,102042.00
2022-12-04T02:59:55.106Z,102037.59
2022-12-04T03:02:25.604Z,102041.00
2022-12-04T03:04:53.813Z,102035.72
2022-12-04T03:07:30.928Z,102043.00
2022-12-04T03:10:03.070Z,102042.00
2022-12-04T03:12:36.506Z,102042.88
2022-12-04T03:15:05.738Z,102035.72
2022-12-04T03:17:38.752Z,102032.16
2022-12-04T03:20:10.939Z,102031.16
2022-12-04T03:22:39.858Z,102028.47
2022-12-04T03:25:07.549Z,102032.16
2022-12-04T03:27:57.951Z,102035.72
2022-12-04T03:30:24.713Z,102029.31
2022-12-04T03:32:57.233Z,102025.63
2022-12-04T03:35:25.626Z,102028.34
2022-12-04T03:38:16.729Z,102023.78
2022-12-04T03:40:45.917Z,102036.31
2022-12-04T03:43:19.945Z,102021.19
2022-12-04T03:45:46.437Z,102020.22
2022-12-04T03:48:22.859Z,102021.19
2022-12-04T03:50:57.946Z,102020.22
2022-12-04T03:53:39.481Z,102018.34
2022-12-04T03:56:08.955Z,102020.22
2022-12-04T03:58:38.723Z,102016.63
2022-12-04T04:01:07.913Z,102012.19
2022-12-04T04:03:37.420Z,102012.94
2022-12-04T04:06:12.865Z,102005.66
2022-12-04T04:08:41.402Z,102007.38
2022-12-04T04:11:13.864Z,102004.66
2022-12-04T04:14:06.610Z,102014.66
2022-12-04T04:16:52.920Z,102017.50
2022-12-04T04:19:38.934Z,102017.50
2022-12-04T04:22:26.417Z,102018.34
2022-12-04T04:24:59.451Z,102011.06
2022-12-04T04:27:25.882Z,102018.22
2022-12-04T04:29:52.951Z,102007.50
2022-12-04T04:32:31.513Z,102007.22
2022-12-04T04:35:06.571Z,102008.06
2022-12-04T04:37:51.395Z,102008.22
2022-12-04T04:40:47.155Z,101997.38
2022-12-04T04:43:20.409Z,101993.97
2022-12-04T04:46:02.734Z,102002.09
2022-12-04T04:48:55.826Z,101998.53
2022-12-04T04:51:22.414Z,102003.78
2022-12-04T04:53:51.274Z,101998.97
2022-12-04T04:56:18.258Z,101999.81
2022-12-04T04:58:44.678Z,101998.81
2022-12-04T05:01:13.107Z,101996.84
2022-12-04T05:03:40.059Z,101997.69
2022-12-04T05:06:06.725Z,101999.56
2022-12-04T05:08:33.593Z,101999.25
2022-12-04T05:11:00.151Z,101999.25
2022-12-04T05:13:28.041Z,101999.25
2022-12-04T05:15:58.546Z,102000.41
2022-12-04T05:18:25.193Z,102004.69
2022-12-04T05:20:51.687Z,102007.38
2022-12-04T05:23:18.234Z,102000.25
2022-12-04T05:25:44.649Z,102010.25
2022-12-04T05:28:11.073Z,102005.84
2022-12-04T05:30:37.511Z,102005.84
2022-12-04T05:33:03.969Z,101997.69
2022-12-04T05:35:30.394Z,102004.97
2022-12-04T05:37:56.856Z,101997.69
2022-12-04T05:40:23.352Z,102002.97
2022-12-04T05:42:49.807Z,101998.41
2022-12-04T05:45:16.191Z,102002.97
2022-12-04T05:47:43.385Z,101995.69
2022-12-04T05:50:10.773Z,101996.53
2022-12-04T05:52:37.221Z,101996.44
2022-12-04T05:55:03.983Z,102004.28
2022-12-04T05:57:30.433Z,102008.75
2022-12-04T05:59:57.174Z,101998.88
2022-12-04T06:02:23.896Z,101996.16
2022-12-04T06:04:50.451Z,102001.59
2022-12-04T06:07:16.825Z,101998.03
2022-12-04T06:09:43.202Z,102002.47
2022-12-04T06:12:09.674Z,101991.63
2022-12-04T06:14:39.567Z,101993.44
2022-12-04T06:17:06.709Z,101995.19
2022-12-04T06:19:33.202Z,101995.03
2022-12-04T06:21:59.628Z,101997.75
2022-12-04T06:24:26.069Z,101992.31
2022-12-04T06:29:42.729Z,101996.03
2022-12-04T06:32:09.224Z,101997.75
2022-12-04T06:34:37.042Z,101997.59
2022-12-04T06:37:03.499Z,101993.06
2022-12-04T06:39:29.916Z,101993.91
2022-12-04T06:41:56.361Z,101985.78
2022-12-04T06:44:22.787Z,101991.31
2022-12-04T06:46:50.136Z,101992.19
2022-12-04T06:49:16.870Z,101995.78
2022-12-04T06:51:43.320Z,101991.31
2022-12-04T06:54:10.464Z,101982.22
2022-12-04T06:56:36.885Z,101988.50
2022-12-04T06:59:04.317Z,101979.50
2022-12-04T07:01:32.637Z,101982.91
2022-12-04T07:04:00.927Z,101990.91
2022-12-04T07:06:28.677Z,101982.66
2022-12-04T07:08:59.221Z,101988.06
2022-12-04T07:11:26.033Z,101995.06
2022-12-04T07:13:52.496Z,101994.22
2022-12-04T07:16:19.892Z,101996.06
2022-12-04T07:18:53.903Z,102004.19
2022-12-04T07:21:24.373Z,101992.50
2022-12-04T07:23:51.539Z,101999.63
2022-12-04T07:26:18.553Z,102000.47
2022-12-04T07:28:47.872Z,102001.34
2022-12-04T07:31:15.610Z,102005.78
2022-12-04T07:33:42.678Z,102006.75
2022-12-04T07:36:11.120Z,102006.75
2022-12-04T07:38:37.553Z,102002.34
2022-12-04T07:41:04.881Z,101998.78
2022-12-04T07:43:31.467Z,102000.78
2022-12-04T07:45:58.538Z,102004.34
2022-12-04T07:48:30.234Z,101995.34
2022-12-04T07:51:06.726Z,102008.78
2022-12-04T07:53:36.205Z,102004.34
2022-12-04T07:56:03.515Z,102001.63
2022-12-04T07:58:29.938Z,102003.34
2022-12-04T08:01:04.616Z,102000.78
2022-12-04T08:03:31.280Z,102015.19
2022-12-04T08:06:01.530Z,102007.19
2022-12-04T08:08:28.115Z,102006.22
2022-12-04T08:10:54.601Z,102020.63
2022-12-04T08:13:20.997Z,102016.19
2022-12-04T08:15:47.754Z,102009.91
2022-12-04T08:18:14.243Z,102022.47
2022-12-04T08:20:40.712Z,102022.34
2022-12-04T08:23:07.194Z,102016.19
2022-12-04T08:25:33.655Z,102023.34
2022-12-04T08:28:00.058Z,102018.63
2022-12-04T08:30:26.540Z,102017.59
2022-12-04T08:32:52.965Z,102018.50
2022-12-04T08:35:19.390Z,102024.63
2022-12-04T08:37:45.942Z,102018.94
2022-12-04T08:40:12.674Z,102023.22
2022-12-04T08:42:39.152Z,102021.38
2022-12-04T08:45:05.972Z,102019.38
2022-12-04T08:47:32.406Z,102025.53
2022-12-04T08:49:58.818Z,102014.69
2022-12-04T08:52:25.337Z,102019.22
2022-12-04T08:54:51.858Z,102024.66
2022-12-04T08:57:18.344Z,102029.81
2022-12-04T08:59:44.806Z,102028.94
2022-12-04T09:02:11.277Z,102029.69
2022-12-04T09:04:37.847Z,102025.13
2022-12-04T09:07:04.428Z,102024.09
2022-12-04T09:09:30.915Z,102022.94
2022-12-04T09:11:57.389Z,102018.41
2022-12-04T09:14:26.000Z,102015.81
2022-12-04T09:16:53.110Z,102021.13
2022-12-04T09:19:19.691Z,102027.25
2022-12-04T09:21:46.464Z,102028.09
2022-12-04T09:24:13.369Z,102028.09
2022-12-04T09:26:39.818Z,102016.41
2022-12-04T09:29:06.388Z,102016.66
2022-12-04T09:31:33.685Z,102020.19
2022-12-04T09:34:00.703Z,102024.13
2022-12-04T09:36:27.730Z,102021.91
2022-12-04T09:38:54.797Z,102028.84
2022-12-04T09:41:30.140Z,102027.13
2022-12-04T09:44:13.719Z,102012.59
2022-12-04T09:46:46.619Z,102007.06
2022-12-04T09:49:23.672Z,102006.72
2022-12-04T09:51:51.475Z,102001.91
2022-12-04T09:54:22.611Z,102006.56
2022-12-04T09:56:54.558Z,101997.38
2022-12-04T09:59:23.680Z,102006.78
2022-12-04T10:01:56.228Z,102004.44
2022-12-04T10:04:22.933Z,102000.09
2022-12-04T10:07:11.786Z,101997.84
2022-12-04T10:09:43.038Z,101997.56
2022-12-04T10:12:22.326Z,101994.31
2022-12-04T10:14:51.854Z,101986.53
2022-12-04T10:17:18.299Z,101980.22
2022-12-04T10:20:01.159Z,101976.63
2022-12-04T10:22:27.607Z,101972.59
2022-12-04T10:24:55.953Z,101971.22
2022-12-04T10:27:25.562Z,101972.56
2022-12-04T10:30:00.626Z,101971.28
2022-12-04T10:32:30.188Z,101972.16
2022-12-04T10:34:58.394Z,101969.59
2022-12-04T10:37:25.593Z,101973.69
2022-12-04T10:39:58.493Z,101960.75
2022-12-04T10:42:36.054Z,101965.22
2022-12-04T10:45:03.937Z,101963.34
2022-12-04T10:47:31.131Z,101961.88
2022-12-04T10:50:14.798Z,101958.66
2022-12-04T10:52:41.348Z,101959.84
2022-12-04T10:55:08.113Z,101946.16
2022-12-04T10:57:35.813Z,101944.25
2022-12-04T11:00:02.642Z,101950.34
2022-12-04T11:02:32.324Z,101953.09
2022-12-04T11:05:00.338Z,101951.47
2022-12-04T11:07:28.264Z,101944.47
2022-12-04T11:10:03.809Z,101941.91
2022-12-04T11:12:30.963Z,101935.25
2022-12-04T11:15:15.718Z,101940.59
2022-12-04T11:17:42.212Z,101946.19
2022-12-04T11:20:15.358Z,101934.97
2022-12-04T11:22:57.174Z,101930.72
2022-12-04T11:25:25.578Z,101938.19
2022-12-04T11:27:54.535Z,101935.19
2022-12-04T11:30:31.551Z,101928.66
2022-12-04T11:32:58.480Z,101922.81
2022-12-04T11:35:26.626Z,101911.69
2022-12-04T11:38:03.242Z,101923.13
2022-12-04T11:40:30.255Z,101920.13
2022-12-04T11:43:15.927Z,101921.56
2022-12-04T11:45:53.200Z,101922.31
2022-12-04T11:48:19.693Z,101919.31
2022-12-04T11:50:54.997Z,101920.88
2022-12-04T11:53:26.121Z,101917.91
2022-12-04T11:55:52.509Z,101922.06
2022-12-04T11:58:19.161Z,101918.22
2022-12-04T12:01:04.534Z,101912.63
2022-12-04T12:03:39.412Z,101918.66
2022-12-04T12:06:05.827Z,101914.97
2022-12-04T12:08:47.645Z,101920.13
2022-12-04T12:11:14.054Z,101919.97
2022-12-04T12:13:58.122Z,101926.97
2022-12-04T12:16:33.030Z,101922.25
2022-12-04T12:19:02.402Z,101916.56
2022-12-04T12:21:32.153Z,101920.88
2022-12-04T12:24:04.615Z,101912.56
2022-12-04T12:26:57.660Z,101910.56
2022-12-04T12:29:27.088Z,101902.31
2022-12-04T12:32:05.424Z,101902.03
2022-12-04T12:34:34.728Z,101901.88
2022-12-04T12:37:05.713Z,101900.88
2022-12-04T12:39:46.018Z,101898.03
2022-12-04T12:42:17.470Z,101908.72
2022-12-04T12:45:02.485Z,101900.44
2022-12-04T12:47:32.128Z,101900.31
2022-12-04T12:50:19.598Z,101911.03
2022-12-04T12:52:56.134Z,101897.44
2022-12-04T12:55:24.155Z,101895.59
2022-12-04T12:58:04.795Z,101890.91
2022-12-04T13:00:32.647Z,101896.31
2022-12-04T13:03:05.630Z,101887.03
2022-12-04T13:05:38.870Z,101887.75
2022-12-04T13:08:05.382Z,101884.19
2022-12-04T13:10:35.588Z,101881.31
2022-12-04T13:13:12.028Z,101879.47
2022-12-04T13:15:44.733Z,101885.75
2022-12-04T13:18:20.514Z,101878.44
2022-12-04T13:20:50.874Z,101884.59
2022-12-04T13:23:32.710Z,101894.47
2022-12-04T13:26:11.442Z,101887.31
2022-12-04T13:28:54.693Z,101888.88
2022-12-04T13:31:40.088Z,101882.47
2022-12-04T13:34:12.288Z,101885.19
2022-12-04T13:36:48.006Z,101888.88
2022-12-04T13:39:31.043Z,101891.59
2022-12-04T13:42:05.295Z,101897.75
2022-12-04T13:44:32.734Z,101892.31
2022-12-04T13:47:01.336Z,101886.72
2022-12-04T13:49:31.775Z,101873.16
2022-12-04T13:51:59.221Z,101879.44
2022-12-04T13:54:28.002Z,101880.19
2022-12-04T13:56:56.174Z,101882.88
2022-12-04T13:59:29.505Z,101877.47
2022-12-04T14:01:57.277Z,101890.03
2022-12-04T14:04:25.971Z,101881.88
2022-12-04T14:06:52.734Z,101883.59
2022-12-04T14:09:48.807Z,101878.16
2022-12-04T14:12:16.649Z,101871.59
2022-12-04T14:14:52.566Z,101873.19
2022-12-04T14:17:20.822Z,101868.59
2022-12-04T14:19:52.349Z,101851.16
2022-12-04T14:22:34.637Z,101853.00
2022-12-04T14:25:13.134Z,101854.72
2022-12-04T14:27:42.565Z,101849.00
2022-12-04T14:30:18.185Z,101848.44
2022-12-04T14:32:46.741Z,101855.16
2022-12-04T14:35:17.414Z,101863.00
2022-12-04T14:38:04.318Z,101854.84
2022-12-04T14:40:36.332Z,101862.88
2022-12-04T14:43:02.887Z,101863.56
2022-12-04T14:45:37.369Z,101853.13
2022-12-04T14:48:36.281Z,101853.56
2022-12-04T14:51:21.006Z,101854.13
2022-12-04T14:53:50.940Z,101846.84
2022-12-04T14:56:29.745Z,101849.22
2022-12-04T14:58:57.607Z,101852.69
2022-12-04T15:01:30.127Z,101848.97
2022-12-04T15:03:59.081Z,101855.13
2022-12-04T15:06:27.266Z,101858.53
2022-12-04T15:09:15.112Z,101850.22
2022-12-04T15:12:18.554Z,101857.41
2022-12-04T15:14:49.051Z,101852.81
2022-12-04T15:17:16.819Z,101840.09
2022-12-04T15:19:43.414Z,101839.09
2022-12-04T15:22:27.055Z,101839.81
2022-12-04T15:24:55.091Z,101838.94
2022-12-04T15:27:27.447Z,101846.94
2022-12-04T15:29:58.881Z,101848.66
2022-12-04T15:32:28.697Z,101853.94
2022-12-04T15:34:58.236Z,101852.94
2022-12-04T15:37:29.334Z,101856.50
2022-12-04T15:39:56.397Z,101863.66
2022-12-04T15:42:22.853Z,101861.66
2022-12-04T15:45:01.438Z,101859.78
2022-12-04T15:47:38.697Z,101863.34
2022-12-04T15:50:09.868Z,101851.63
2022-12-04T15:52:36.637Z,101847.91
2022-12-04T15:55:06.415Z,101839.75
2022-12-04T15:57:42.851Z,101843.31
2022-12-04T16:00:21.438Z,101848.75
2022-12-04T16:02:48.357Z,101843.19
2022-12-04T16:05:14.746Z,101837.91
2022-12-04T16:07:51.281Z,101852.19
2022-12-04T16:10:21.536Z,101855.78
2022-12-04T16:12:55.055Z,101844.75
2022-12-04T16:15:21.957Z,101848.47
2022-12-04T16:17:48.437Z,101850.19
2022-12-04T16:20:15.486Z,101848.47
2022-12-04T16:22:42.426Z,101843.03
2022-12-04T16:25:12.665Z,101844.75
2022-12-04T16:27:39.165Z,101851.03
2022-12-04T16:30:05.968Z,101848.31
2022-12-04T16:32:33.448Z,101840.88
2022-12-04T16:35:00.625Z,101850.00
2022-12-04T16:37:28.446Z,101847.63
2022-12-04T16:39:55.021Z,101848.75
2022-12-04T16:42:28.991Z,101847.75
2022-12-04T16:44:56.297Z,101846.91
2022-12-04T16:47:23.058Z,101857.63
2022-12-04T16:49:50.669Z,101856.47
2022-12-04T16:52:17.693Z,101858.03
2022-12-04T16:54:44.294Z,101850.75
2022-12-04T16:57:10.783Z,101858.72
2022-12-04T16:59:37.337Z,101856.72
2022-12-04T17:02:06.291Z,101868.16
2022-12-04T17:04:32.896Z,101868.00
2022-12-04T17:06:59.415Z,101869.72
2022-12-04T17:09:25.987Z,101859.56
2022-12-04T17:11:52.358Z,101861.09
2022-12-04T17:14:18.833Z,101862.84
2022-12-04T17:16:47.124Z,101851.81
2022-12-04T17:19:14.107Z,101858.94
2022-12-04T17:21:41.652Z,101861.66
2022-12-04T17:24:08.445Z,101865.22
2022-12-04T17:26:35.068Z,101854.53
2022-12-04T17:29:01.473Z,101860.66
2022-12-04T17:31:28.256Z,101852.66
2022-12-04T17:33:56.106Z,101856.22
2022-12-04T17:36:25.178Z,101856.38
2022-12-04T17:38:55.478Z,101846.53
2022-12-04T17:41:22.249Z,101847.38
2022-12-04T17:43:48.917Z,101850.97
2022-12-04T17:46:17.334Z,101844.78
2022-12-04T17:48:43.789Z,101843.81
2022-12-04T17:51:12.154Z,101838.50
2022-12-04T17:53:39.009Z,101835.97
2022-12-04T17:56:10.072Z,101837.81
2022-12-04T17:58:36.534Z,101834.25
2022-12-04T18:01:23.008Z,101842.41
2022-12-04T18:03:50.262Z,101845.25
2022-12-04T18:06:18.366Z,101851.69
2022-12-04T18:08:49.796Z,101846.09
2022-12-04T18:11:17.201Z,101850.84
2022-12-04T18:13:43.698Z,101837.09
2022-12-04T18:16:11.101Z,101840.84
2022-12-04T18:18:37.841Z,101842.69
2022-12-04T18:21:09.420Z,101829.97
2022-12-04T18:23:37.831Z,101832.69
2022-12-04T18:26:04.994Z,101836.41
2022-12-04T18:28:31.447Z,101840.13
2022-12-04T18:31:05.023Z,101846.44
2022-12-04T18:33:32.239Z,101840.84
2022-12-04T18:35:58.964Z,101838.28
2022-12-04T18:38:26.039Z,101835.56
2022-12-04T18:40:54.525Z,101831.09
2022-12-04T18:43:21.781Z,101830.97
2022-12-04T18:45:57.058Z,101828.38
2022-12-04T18:48:23.547Z,101832.97
2022-12-04T18:50:50.021Z,101836.53
2022-12-04T18:53:18.507Z,101843.84
2022-12-04T18:55:45.192Z,101841.00
2022-12-04T18:58:11.798Z,101840.13
2022-12-04T19:00:38.485Z,101841.28
2022-12-04T19:03:05.982Z,101847.56
2022-12-04T19:05:32.433Z,101840.44
2022-12-04T19:07:59.079Z,101844.69
2022-12-04T19:10:28.152Z,101843.00
2022-12-04T19:12:54.734Z,101840.28
2022-12-04T19:15:21.649Z,101847.41
2022-12-04T19:17:48.437Z,101850.13
2022-12-04T19:20:18.150Z,101853.72
2022-12-04T19:22:44.741Z,101849.16
2022-12-04T19:25:11.193Z,101848.28
2022-12-04T19:27:37.630Z,101852.72
2022-12-04T19:30:05.759Z,101852.84
2022-12-04T19:32:33.063Z,101849.16
2022-12-04T19:34:59.497Z,101847.28
2022-12-04T19:37:26.822Z,101845.56
2022-12-04T19:39:53.421Z,101838.72
2022-12-04T19:42:19.931Z,101838.28
2022-12-04T19:44:49.105Z,101842.84
2022-12-04T19:47:15.726Z,101841.97
2022-12-04T19:49:42.258Z,101841.84
2022-12-04T19:52:08.693Z,101835.56
2022-12-04T19:54:35.173Z,101839.13
2022-12-04T19:57:01.677Z,101840.13
2022-12-04T19:59:31.756Z,101837.44
2022-12-04T20:02:01.154Z,101843.72
2022-12-04T20:04:27.607Z,101832.00
2022-12-04T20:06:54.082Z,101830.97
2022-12-04T20:09:21.350Z,101836.41
2022-12-04T20:11:47.913Z,101834.38
2022-12-04T20:14:14.414Z,101831.81
2022-12-04T20:16:42.075Z,101838.13
2022-12-04T20:19:12.172Z,101837.94
2022-12-04T20:21:38.606Z,101836.25
2022-12-04T20:24:05.941Z,101839.81
2022-12-04T20:26:34.469Z,101837.94
2022-12-04T20:29:01.567Z,101842.53
2022-12-04T20:31:30.468Z,101835.41
2022-12-04T20:33:58.369Z,101832.50
2022-12-04T20:36:26.787Z,101820.78
2022-12-04T20:38:55.381Z,101823.50
2022-12-04T20:41:21.865Z,101826.22
2022-12-04T20:43:48.637Z,101824.38
2022-12-04T20:46:20.762Z,101809.06
2022-12-04T20:48:48.921Z,101809.81
2022-12-04T20:51:17.387Z,101807.94
2022-12-04T20:53:44.182Z,101807.09
2022-12-04T20:56:10.793Z,101808.78
2022-12-04T20:58:37.328Z,101806.22
2022-12-04T21:01:15.063Z,101806.22
2022-12-04T21:03:42.182Z,101794.47
2022-12-04T21:06:13.142Z,101791.75
2022-12-04T21:08:55.829Z,101795.34
2022-12-04T21:11:23.704Z,101790.91
2022-12-04T21:14:09.237Z,101799.91
2022-12-04T21:16:36.057Z,101795.50
2022-12-04T21:19:03.357Z,101793.63
2022-12-04T21:21:30.049Z,101802.78
2022-12-04T21:23:56.757Z,101797.34
2022-12-04T21:26:23.358Z,101806.22
2022-12-04T21:28:49.790Z,101800.78
2022-12-04T21:31:16.241Z,101805.34
2022-12-04T21:33:42.721Z,101804.50
2022-12-04T21:36:09.448Z,101807.22
2022-12-04T21:38:36.953Z,101807.22
2022-12-04T21:41:04.094Z,101805.50
2022-12-04T21:43:31.493Z,101810.78
2022-12-04T21:46:00.191Z,101799.91
2022-12-04T21:48:28.486Z,101808.22
2022-12-04T21:50:55.118Z,101795.50
2022-12-04T21:53:21.691Z,101797.34
2022-12-04T21:55:49.177Z,101801.53
2022-12-04T21:58:15.702Z,101790.81
2022-12-04T22:00:42.206Z,101790.69
2022-12-04T22:03:08.756Z,101790.06
2022-12-04T22:05:35.351Z,101797.75
2022-12-04T22:08:01.865Z,101793.03
2022-12-04T22:10:28.445Z,101789.13
2022-12-04T22:12:54.949Z,101785.44
2022-12-04T22:15:21.369Z,101783.56
2022-12-04T22:17:47.864Z,101797.16
2022-12-04T22:20:14.394Z,101787.13
2022-12-04T22:22:40.822Z,101795.13
2022-12-04T22:25:07.380Z,101794.28
2022-12-04T22:27:33.792Z,101788.84
2022-12-04T22:30:00.652Z,101790.53
2022-12-04T22:32:27.058Z,101788.69
2022-12-04T22:34:53.581Z,101788.69
2022-12-04T22:37:20.021Z,101795.84
2022-12-04T22:39:46.497Z,101793.13
2022-12-04T22:42:12.952Z,101791.25
2022-12-04T22:44:39.409Z,101792.13
2022-12-04T22:47:05.901Z,101793.81
2022-12-04T22:49:32.357Z,101794.84
2022-12-04T22:51:58.870Z,101791.09
2022-12-04T22:54:25.351Z,101783.13
2022-12-04T22:56:51.805Z,101781.09
2022-12-04T22:59:18.218Z,101777.50
2022-12-04T23:01:44.689Z,101776.50
2022-12-04T23:04:11.167Z,101775.66
2022-12-04T23:06:38.065Z,101763.78
2022-12-04T23:09:06.453Z,101762.91
2022-12-04T23:11:33.301Z,101753.78
2022-12-04T23:14:01.343Z,101755.47
2022-12-04T23:16:28.606Z,101755.47
2022-12-04T23:18:55.422Z,101757.34
2022-12-04T23:21:24.864Z,101762.59
2022-12-04T23:23:52.214Z,101767.19
2022-12-04T23:26:20.322Z,101762.78
2022-12-04T23:28:47.017Z,101755.78
2022-12-04T23:31:13.751Z,101763.69
2022-12-04T23:33:40.765Z,101756.00
2022-12-04T23:36:08.733Z,101761.56
2022-12-04T23:38:36.398Z,101757.00
2022-12-04T23:41:02.932Z,101747.41
2022-12-04T23:43:29.341Z,101747.63
2022-12-04T23:45:55.866Z,101741.72
2022-12-04T23:48:22.285Z,101744.31
2022-12-04T23:50:48.751Z,101737.69
2022-12-04T23:53:15.204Z,101740.25
2022-12-04T23:55:41.714Z,101735.69
2022-12-04T23:58:08.093Z,101737.53
